createdAt,value
2022-10-06T00:01:19.930Z,1000
2022-10-06T00:07:19.827Z,1000
2022-10-06T00:13:19.836Z,1000
2022-10-06T00:19:19.836Z,1000
2022-10-06T00:25:19.820Z,1001
2022-10-06T00:31:20.066Z,1001
2022-10-06T00:37:19.849Z,1001
2022-10-06T00:43:19.828Z,1001
2022-10-06T00:49:19.859Z,1001
2022-10-06T00:55:19.834Z,1001
2022-10-06T01:01:19.927Z,1001
2022-10-06T01:07:19.832Z,1001
2022-10-06T01:13:19.854Z,1001
2022-10-06T01:19:19.870Z,1001
2022-10-06T01:25:19.833Z,1001
2022-10-06T01:31:19.900Z,1001
2022-10-06T01:37:19.829Z,1001
2022-10-06T01:43:19.872Z,1002
2022-10-06T01:49:19.851Z,1002
2022-10-06T01:55:19.843Z,1002
2022-10-06T02:01:19.886Z,1002
2022-10-06T02:07:19.925Z,1002
2022-10-06T02:13:19.826Z,1002
2022-10-06T02:19:19.829Z,1002
2022-10-06T02:25:19.868Z,1002
2022-10-06T02:31:19.890Z,1002
2022-10-06T02:37:19.833Z,1002
2022-10-06T02:43:19.966Z,1002
2022-10-06T02:49:19.817Z,1002
2022-10-06T02:55:19.825Z,1002
2022-10-06T03:01:19.922Z,1002
2022-10-06T03:07:19.861Z,1003
2022-10-06T03:13:19.845Z,1003
2022-10-06T03:19:19.867Z,1003
2022-10-06T03:25:19.818Z,1003
2022-10-06T03:31:19.928Z,1003
2022-10-06T03:37:19.874Z,1003
2022-10-06T03:43:19.831Z,1003
2022-10-06T03:49:19.839Z,1003
2022-10-06T03:55:19.888Z,1004
2022-10-06T04:01:24.992Z,1004
2022-10-06T04:07:19.842Z,1004
2022-10-06T04:13:19.864Z,1004
2022-10-06T04:19:19.850Z,1004
2022-10-06T04:25:19.834Z,1004
2022-10-06T04:31:19.930Z,1004
2022-10-06T04:37:19.876Z,1004
2022-10-06T04:43:19.876Z,1004
2022-10-06T04:49:20.782Z,1004
2022-10-06T04:55:19.833Z,1005
2022-10-06T05:01:19.916Z,1005
2022-10-06T05:07:19.877Z,1005
2022-10-06T05:13:19.832Z,1005
2022-10-06T05:19:19.819Z,1005
2022-10-06T05:25:19.862Z,1005
2022-10-06T05:31:19.910Z,1005
2022-10-06T05:37:19.841Z,1005
2022-10-06T05:43:19.871Z,1005
2022-10-06T05:49:19.835Z,1005
2022-10-06T05:55:19.859Z,1005
2022-10-06T06:01:19.920Z,1006
2022-10-06T06:07:19.850Z,1006
2022-10-06T06:13:19.851Z,1006
2022-10-06T06:19:19.864Z,1006
2022-10-06T06:25:19.853Z,1006
2022-10-06T06:31:20.470Z,1006
2022-10-06T06:37:19.898Z,1006
2022-10-06T06:43:19.858Z,1006
2022-10-06T06:49:19.874Z,1006
2022-10-06T06:55:19.984Z,1006
2022-10-06T07:01:19.940Z,1006
2022-10-06T07:07:19.868Z,1006
2022-10-06T07:13:19.942Z,1006
2022-10-06T07:19:24.499Z,1006
2022-10-06T07:25:25.070Z,1007
2022-10-06T07:31:19.981Z,1007
2022-10-06T07:37:19.860Z,1007
2022-10-06T07:43:20.065Z,1007
2022-10-06T07:49:19.868Z,1007
2022-10-06T07:55:19.860Z,1007
2022-10-06T08:01:19.992Z,1007
2022-10-06T08:07:19.893Z,1007
2022-10-06T08:13:19.845Z,1007
2022-10-06T08:19:19.869Z,1007
2022-10-06T08:25:19.907Z,1007
2022-10-06T08:31:19.930Z,1007
2022-10-06T08:37:20.577Z,1007
2022-10-06T08:43:19.949Z,1007
2022-10-06T08:49:19.931Z,1007
2022-10-06T08:55:19.897Z,1008
2022-10-06T09:01:19.967Z,1008
2022-10-06T09:07:19.913Z,1008
2022-10-06T09:13:22.100Z,1008
2022-10-06T09:57:19.950Z,1008
2022-10-06T10:03:19.972Z,1008
2022-10-06T10:09:21.929Z,1008
2022-10-06T10:15:19.944Z,1008
2022-10-06T10:21:19.903Z,1008
2022-10-06T10:27:33.264Z,1008
2022-10-06T10:39:19.918Z,1008
2022-10-06T10:45:19.936Z,1008
2022-10-06T10:51:19.963Z,1008
2022-10-06T10:57:19.939Z,1008
2022-10-06T11:03:19.958Z,1008
2022-10-06T11:09:19.936Z,1008
2022-10-06T11:15:20.041Z,1008
2022-10-06T11:21:19.949Z,1008
2022-10-06T11:27:26.928Z,1008
2022-10-06T11:33:19.955Z,1008
2022-10-06T11:39:19.944Z,1008
2022-10-06T11:45:19.974Z,1008
2022-10-06T11:51:19.971Z,1008
2022-10-06T11:57:19.944Z,1008
2022-10-06T12:03:20.024Z,1008
2022-10-06T12:09:19.945Z,1008
2022-10-06T12:21:20.027Z,1008
2022-10-06T12:27:25.976Z,1008
2022-10-06T12:33:19.966Z,1008
2022-10-06T12:39:20.017Z,1008
2022-10-06T12:45:19.947Z,1008
2022-10-06T12:51:20.096Z,1008
2022-10-06T12:57:20.072Z,1008
2022-10-06T13:03:19.963Z,1007
2022-10-06T13:09:19.965Z,1007
2022-10-06T13:15:20.065Z,1007
2022-10-06T13:21:19.972Z,1007
2022-10-06T13:27:19.953Z,1007
2022-10-06T13:33:19.967Z,1007
2022-10-06T13:39:20.024Z,1007
2022-10-06T13:45:19.952Z,1007
2022-10-06T13:51:20.002Z,1007
2022-10-06T13:57:19.968Z,1007
2022-10-06T14:03:19.983Z,1007
2022-10-06T14:09:19.977Z,1007
2022-10-06T14:15:19.969Z,1007
2022-10-06T14:21:19.979Z,1007
2022-10-06T14:27:19.985Z,1007
2022-10-06T14:33:20.004Z,1007
2022-10-06T14:39:19.992Z,1007
2022-10-06T14:45:20.022Z,1007
2022-10-06T14:51:19.978Z,1007
2022-10-06T14:57:20.005Z,1007
2022-10-06T15:03:20.128Z,1007
2022-10-06T15:09:19.973Z,1007
2022-10-06T15:15:20.149Z,1007
2022-10-06T15:21:20.007Z,1007
2022-10-06T15:27:24.527Z,1007
2022-10-06T15:33:19.973Z,1007
2022-10-06T15:39:20.000Z,1007
2022-10-06T15:45:20.059Z,1007
2022-10-06T15:51:19.979Z,1007
2022-10-06T15:57:21.467Z,1007
2022-10-06T16:03:19.994Z,1007
2022-10-06T16:09:19.985Z,1007
2022-10-06T16:15:20.045Z,1007
2022-10-06T16:21:19.995Z,1007
2022-10-06T16:27:20.001Z,1007
2022-10-06T16:33:20.004Z,1007
2022-10-06T16:39:20.004Z,1007
2022-10-06T16:45:20.014Z,1007
2022-10-06T16:51:20.036Z,1007
2022-10-06T16:57:20.007Z,1007
2022-10-06T17:03:20.007Z,1007
2022-10-06T17:09:20.010Z,1007
2022-10-06T17:15:19.995Z,1007
2022-10-06T17:21:43.258Z,1007
2022-10-06T17:27:20.049Z,1007
2022-10-06T17:33:20.002Z,1007
2022-10-06T17:39:20.024Z,1007
2022-10-06T17:45:21.388Z,1007
2022-10-06T17:51:20.027Z,1007
2022-10-06T17:57:20.008Z,1007
2022-10-06T18:03:20.048Z,1007
2022-10-06T18:09:19.992Z,1007
2022-10-06T18:15:20.025Z,1007
2022-10-06T18:21:20.024Z,1007
2022-10-06T18:27:20.024Z,1007
2022-10-06T18:36:10.507Z,1007
2022-10-06T18:39:20.035Z,1007
2022-10-06T18:45:20.036Z,1007
2022-10-06T18:51:20.012Z,1007
2022-10-06T18:57:23.797Z,1007
2022-10-06T19:03:20.021Z,1007
2022-10-06T19:09:20.000Z,1007
2022-10-06T19:15:21.337Z,1007
2022-10-06T19:21:20.021Z,1007
2022-10-06T19:27:20.021Z,1007
2022-10-06T19:33:20.056Z,1007
2022-10-06T19:39:20.016Z,1007
2022-10-06T19:45:20.017Z,1007
2022-10-06T19:51:20.080Z,1007
2022-10-06T19:57:20.064Z,1007
2022-10-06T20:03:20.060Z,1007
2022-10-06T20:09:20.038Z,1007
2022-10-06T20:15:20.045Z,1007
2022-10-06T20:21:20.028Z,1007
2022-10-06T20:27:20.079Z,1007
2022-10-06T20:33:20.029Z,1007
2022-10-06T20:39:20.010Z,1007
2022-10-06T20:45:20.068Z,1007
2022-10-06T20:51:23.119Z,1007
2022-10-06T20:57:20.023Z,1007
2022-10-06T21:03:20.081Z,1007
2022-10-06T21:09:20.042Z,1007
2022-10-06T21:15:20.059Z,1007
2022-10-06T21:21:20.075Z,1007
2022-10-06T21:27:20.062Z,1007
2022-10-06T21:33:20.060Z,1007
2022-10-06T21:39:20.074Z,1007
2022-10-06T21:45:24.271Z,1007
2022-10-06T21:51:20.312Z,1007
2022-10-06T21:57:20.146Z,1007
2022-10-06T22:03:20.079Z,1007
2022-10-06T22:09:20.072Z,1007
2022-10-06T22:15:20.084Z,1007
2022-10-06T22:21:20.105Z,1007
2022-10-06T22:27:20.074Z,1007
2022-10-06T22:33:20.078Z,1007
2022-10-06T22:39:20.078Z,1007
2022-10-06T22:45:20.045Z,1007
2022-10-06T22:51:20.097Z,1007
2022-10-06T22:57:20.102Z,1007
2022-10-06T23:03:20.115Z,1006
2022-10-06T23:09:20.089Z,1006
2022-10-06T23:15:20.053Z,1006
2022-10-06T23:21:20.047Z,1006
2022-10-06T23:27:20.076Z,1006
2022-10-06T23:33:20.071Z,1006
2022-10-06T23:39:20.037Z,1006
2022-10-06T23:45:20.091Z,1006
2022-10-06T23:51:20.048Z,1006
2022-10-06T23:57:20.092Z,1006
